createdAt,value
2023-01-29T00:02:05.577Z,6.80
2023-01-29T00:04:33.083Z,7.00
2023-01-29T00:07:00.652Z,6.07
2023-01-29T00:09:28.722Z,6.10
2023-01-29T00:11:57.406Z,6.55
2023-01-29T00:14:26.266Z,6.55
2023-01-29T00:16:53.652Z,6.60
2023-01-29T00:19:21.089Z,6.45
2023-01-29T00:21:48.473Z,6.95
2023-01-29T00:24:15.904Z,7.22
2023-01-29T00:26:43.314Z,7.07
2023-01-29T00:29:12.010Z,6.13
2023-01-29T00:31:39.485Z,6.80
2023-01-29T00:34:07.075Z,7.13
2023-01-29T00:36:34.446Z,6.78
2023-01-29T00:39:03.432Z,6.97
2023-01-29T00:41:49.454Z,6.93
2023-01-29T00:44:36.004Z,6.95
2023-01-29T00:47:03.397Z,7.10
2023-01-29T00:49:31.108Z,6.35
2023-01-29T00:52:16.343Z,6.90
2023-01-29T00:54:43.727Z,7.25
2023-01-29T00:57:11.247Z,7.55
2023-01-29T00:59:39.987Z,7.00
2023-01-29T01:02:24.787Z,7.03
2023-01-29T01:04:52.188Z,7.63
2023-01-29T01:07:19.563Z,6.80
2023-01-29T01:10:04.355Z,7.13
2023-01-29T01:12:31.788Z,7.70
2023-01-29T01:15:00.495Z,7.10
2023-01-29T01:17:27.887Z,7.22
2023-01-29T01:19:55.280Z,7.82
2023-01-29T01:22:22.661Z,7.18
2023-01-29T01:24:50.280Z,7.25
2023-01-29T01:27:19.446Z,7.53
2023-01-29T01:29:46.950Z,8.23
2023-01-29T01:32:15.886Z,8.23
2023-01-29T01:34:45.204Z,7.43
2023-01-29T01:37:12.616Z,7.57
2023-01-29T01:39:39.987Z,7.95
2023-01-29T01:42:07.519Z,7.22
2023-01-29T01:44:55.671Z,7.78
2023-01-29T01:47:27.450Z,7.90
2023-01-29T01:49:54.837Z,7.70
2023-01-29T01:52:22.215Z,7.38
2023-01-29T01:54:49.773Z,8.20
2023-01-29T01:57:18.258Z,7.28
2023-01-29T01:59:48.324Z,7.93
2023-01-29T02:02:33.282Z,8.90
2023-01-29T02:05:19.896Z,8.10
2023-01-29T02:08:06.112Z,7.57
2023-01-29T02:10:37.586Z,8.13
2023-01-29T02:13:05.047Z,7.22
2023-01-29T02:15:32.465Z,8.25
2023-01-29T02:17:59.916Z,7.90
2023-01-29T02:20:29.664Z,7.70
2023-01-29T02:23:31.529Z,7.60
2023-01-29T02:26:05.285Z,7.80
2023-01-29T02:28:36.785Z,7.65
2023-01-29T02:31:09.324Z,7.72
2023-01-29T02:33:42.613Z,8.25
2023-01-29T02:36:15.630Z,8.38
2023-01-29T02:38:46.674Z,8.07
2023-01-29T02:41:15.079Z,8.25
2023-01-29T02:43:46.309Z,8.30
2023-01-29T02:46:17.767Z,7.97
2023-01-29T02:48:46.806Z,8.05
2023-01-29T02:51:19.071Z,8.32
2023-01-29T02:53:50.532Z,8.43
2023-01-29T02:56:18.820Z,8.25
2023-01-29T02:58:48.749Z,8.82
2023-01-29T03:01:18.958Z,8.90
2023-01-29T03:06:18.193Z,8.85
2023-01-29T03:08:49.987Z,7.90
2023-01-29T03:11:17.613Z,8.50
2023-01-29T03:13:48.075Z,8.27
2023-01-29T03:16:19.334Z,8.20
2023-01-29T03:18:50.889Z,8.57
2023-01-29T03:21:38.692Z,8.10
2023-01-29T03:24:24.496Z,8.43
2023-01-29T03:27:09.256Z,7.80
2023-01-29T03:29:55.851Z,8.73
2023-01-29T03:32:23.805Z,7.85
2023-01-29T03:34:53.145Z,7.82
2023-01-29T03:37:22.336Z,8.25
2023-01-29T03:39:49.709Z,7.30
2023-01-29T03:42:20.041Z,7.85
2023-01-29T03:44:54.181Z,7.85
2023-01-29T03:47:22.938Z,8.27
2023-01-29T03:49:57.232Z,7.72
2023-01-29T03:52:26.249Z,8.95
2023-01-29T03:54:57.349Z,8.77
2023-01-29T03:57:27.855Z,9.77
2023-01-29T03:59:58.695Z,8.85
2023-01-29T04:02:28.475Z,8.52
2023-01-29T04:04:57.265Z,8.35
2023-01-29T04:07:24.714Z,9.38
2023-01-29T04:09:53.389Z,8.98
2023-01-29T04:12:22.401Z,8.90
2023-01-29T04:14:49.785Z,8.75
2023-01-29T04:17:19.927Z,8.93
2023-01-29T04:22:16.972Z,8.60
2023-01-29T04:24:44.356Z,8.65
2023-01-29T04:27:26.910Z,8.43
2023-01-29T04:30:01.559Z,9.05
2023-01-29T04:32:33.078Z,9.65
2023-01-29T04:35:09.159Z,8.50
2023-01-29T04:37:38.353Z,9.48
2023-01-29T04:40:13.216Z,8.80
2023-01-29T04:42:43.780Z,9.32
2023-01-29T04:45:15.974Z,8.90
2023-01-29T04:47:48.072Z,9.70
2023-01-29T04:50:16.893Z,9.50
2023-01-29T04:52:48.461Z,9.63
2023-01-29T04:55:18.009Z,9.77
2023-01-29T04:57:48.283Z,10.95
2023-01-29T05:00:18.794Z,9.20
2023-01-29T05:02:47.705Z,9.48
2023-01-29T05:05:15.465Z,9.60
2023-01-29T05:07:42.834Z,9.20
2023-01-29T05:10:10.913Z,9.63
2023-01-29T05:12:38.738Z,9.15
2023-01-29T05:15:10.098Z,9.15
2023-01-29T05:17:37.483Z,9.10
2023-01-29T05:20:07.446Z,9.57
2023-01-29T05:22:34.901Z,9.55
2023-01-29T05:25:02.261Z,9.23
2023-01-29T05:27:48.445Z,9.25
2023-01-29T05:30:16.427Z,10.00
2023-01-29T05:32:43.997Z,9.77
2023-01-29T05:35:12.885Z,9.40
2023-01-29T05:37:40.256Z,9.63
2023-01-29T05:40:09.520Z,9.48
2023-01-29T05:42:36.961Z,9.90
2023-01-29T05:45:04.914Z,9.35
2023-01-29T05:47:32.304Z,9.32
2023-01-29T05:49:59.691Z,10.10
2023-01-29T05:52:28.413Z,10.07
2023-01-29T05:54:55.822Z,10.38
2023-01-29T05:57:23.225Z,9.73
2023-01-29T05:59:50.603Z,9.45
2023-01-29T06:02:17.977Z,8.85
2023-01-29T06:04:45.337Z,8.93
2023-01-29T06:07:12.734Z,9.18
2023-01-29T06:09:41.437Z,8.82
2023-01-29T06:12:08.828Z,9.95
2023-01-29T06:14:36.214Z,9.65
2023-01-29T06:17:04.762Z,9.52
2023-01-29T06:19:32.145Z,9.35
2023-01-29T06:21:59.728Z,9.75
2023-01-29T06:24:27.164Z,9.75
2023-01-29T06:26:55.906Z,9.10
2023-01-29T06:29:23.289Z,10.38
2023-01-29T06:31:50.759Z,10.40
2023-01-29T06:34:18.633Z,8.70
2023-01-29T06:36:46.022Z,9.93
2023-01-29T06:39:13.483Z,9.27
2023-01-29T06:41:40.892Z,9.48
2023-01-29T06:44:09.607Z,9.73
2023-01-29T06:46:37.007Z,9.88
2023-01-29T06:49:04.396Z,9.35
2023-01-29T06:51:31.799Z,10.30
2023-01-29T06:53:59.183Z,9.85
2023-01-29T06:56:26.641Z,10.02
2023-01-29T06:58:54.062Z,10.20
2023-01-29T07:01:35.003Z,9.77
2023-01-29T07:04:03.112Z,9.40
2023-01-29T07:06:30.705Z,10.80
2023-01-29T07:08:58.149Z,10.20
2023-01-29T07:11:25.570Z,10.43
2023-01-29T07:13:53.017Z,9.95
2023-01-29T07:16:20.598Z,10.10
2023-01-29T07:18:49.340Z,11.20
2023-01-29T07:21:16.741Z,9.98
2023-01-29T07:23:44.253Z,10.10
2023-01-29T07:26:11.685Z,10.13
2023-01-29T07:28:39.227Z,10.52
2023-01-29T07:31:06.879Z,9.63
2023-01-29T07:33:34.401Z,10.40
2023-01-29T07:36:03.115Z,11.15
2023-01-29T07:38:30.495Z,12.00
2023-01-29T07:40:57.879Z,11.30
2023-01-29T07:43:25.643Z,11.85
2023-01-29T07:45:53.066Z,12.35
2023-01-29T07:48:20.496Z,10.93
2023-01-29T07:50:55.147Z,11.52
2023-01-29T07:53:23.837Z,12.48
2023-01-29T07:55:51.308Z,10.68
2023-01-29T07:58:18.731Z,11.57
2023-01-29T08:00:46.247Z,12.07
2023-01-29T08:03:15.972Z,11.55
2023-01-29T08:08:07.477Z,12.15
2023-01-29T08:10:36.565Z,12.38
2023-01-29T08:13:04.119Z,13.57
2023-01-29T08:15:31.548Z,13.00
2023-01-29T08:17:58.922Z,12.77
2023-01-29T08:20:26.559Z,13.43
2023-01-29T08:22:59.816Z,12.63
2023-01-29T08:25:27.553Z,14.48
2023-01-29T08:27:57.070Z,14.55
2023-01-29T08:30:24.580Z,13.38
2023-01-29T08:32:51.993Z,13.32
2023-01-29T08:35:19.608Z,13.90
2023-01-29T08:37:53.674Z,13.05
2023-01-29T08:40:21.087Z,13.48
2023-01-29T08:42:48.527Z,13.13
2023-01-29T08:45:17.551Z,13.57
2023-01-29T08:47:47.957Z,13.10
2023-01-29T08:50:15.807Z,14.00
2023-01-29T08:52:43.431Z,13.75
2023-01-29T08:55:11.015Z,13.18
2023-01-29T08:57:38.497Z,13.60
2023-01-29T09:00:06.906Z,14.32
2023-01-29T09:02:35.660Z,13.25
2023-01-29T09:05:03.049Z,14.07
2023-01-29T09:07:30.524Z,12.15
2023-01-29T09:09:57.913Z,12.85
2023-01-29T09:12:25.299Z,13.68
2023-01-29T09:14:52.693Z,12.75
2023-01-29T09:17:20.083Z,13.65
2023-01-29T09:19:48.784Z,13.07
2023-01-29T09:22:16.164Z,12.90
2023-01-29T09:24:43.538Z,13.88
2023-01-29T09:27:10.937Z,13.32
2023-01-29T09:29:38.301Z,12.60
2023-01-29T09:32:06.883Z,12.65
2023-01-29T09:34:34.547Z,13.20
2023-01-29T09:37:03.265Z,13.05
2023-01-29T09:39:30.672Z,14.30
2023-01-29T09:42:00.898Z,13.60
2023-01-29T09:46:57.358Z,12.02
2023-01-29T09:49:26.296Z,13.18
2023-01-29T09:51:54.829Z,12.48
2023-01-29T09:54:25.377Z,12.85
2023-01-29T09:56:54.640Z,13.13
2023-01-29T09:59:22.919Z,12.33
2023-01-29T10:01:54.978Z,12.98
2023-01-29T10:04:50.453Z,12.68
2023-01-29T10:07:38.635Z,11.73
2023-01-29T10:10:15.751Z,13.02
2023-01-29T10:13:04.507Z,13.38
2023-01-29T10:15:41.387Z,12.43
2023-01-29T10:18:24.962Z,10.88
2023-01-29T10:20:56.561Z,11.65
2023-01-29T10:23:25.087Z,12.63
2023-01-29T10:25:53.962Z,12.93
2023-01-29T10:28:22.304Z,13.07
2023-01-29T10:30:50.525Z,12.25
2023-01-29T10:33:25.926Z,11.73
2023-01-29T10:35:56.728Z,11.63
2023-01-29T10:38:29.570Z,12.70
2023-01-29T10:41:01.782Z,11.38
2023-01-29T10:43:32.291Z,11.02
2023-01-29T10:46:04.421Z,11.43
2023-01-29T10:48:45.388Z,11.07
2023-01-29T10:51:20.295Z,11.50
2023-01-29T10:53:54.247Z,10.60
2023-01-29T10:56:29.814Z,11.45
2023-01-29T10:58:59.013Z,11.57
2023-01-29T11:01:27.109Z,10.32
2023-01-29T11:03:59.179Z,11.48
2023-01-29T11:06:29.728Z,10.68
2023-01-29T11:08:59.886Z,11.63
2023-01-29T11:14:01.133Z,9.85
2023-01-29T11:16:29.940Z,9.93
2023-01-29T11:18:58.499Z,10.63
2023-01-29T11:21:26.358Z,10.10
2023-01-29T11:24:06.571Z,10.05
2023-01-29T11:29:03.887Z,9.63
2023-01-29T11:31:36.996Z,9.50
2023-01-29T11:34:06.929Z,10.25
2023-01-29T11:36:36.995Z,9.75
2023-01-29T11:39:16.098Z,9.20
2023-01-29T11:41:45.791Z,8.85
2023-01-29T11:44:23.150Z,9.10
2023-01-29T11:46:50.566Z,8.70
2023-01-29T11:49:32.902Z,9.13
2023-01-29T11:52:01.840Z,8.85
2023-01-29T11:54:30.500Z,8.20
2023-01-29T11:56:59.201Z,7.13
2023-01-29T11:59:42.256Z,8.23
2023-01-29T12:02:20.723Z,7.53
2023-01-29T12:04:48.126Z,8.48
2023-01-29T12:07:16.345Z,8.02
2023-01-29T12:09:50.366Z,8.23
2023-01-29T12:12:28.382Z,7.55
2023-01-29T12:15:11.271Z,7.40
2023-01-29T12:17:38.907Z,7.75
2023-01-29T12:20:10.125Z,7.45
2023-01-29T12:22:41.010Z,6.22
2023-01-29T12:25:09.230Z,7.25
2023-01-29T12:27:39.853Z,7.20
2023-01-29T12:30:11.989Z,6.63
2023-01-29T12:32:42.035Z,6.70
2023-01-29T12:35:13.100Z,6.28
2023-01-29T12:37:44.387Z,6.50
2023-01-29T12:40:14.303Z,6.05
2023-01-29T12:45:13.606Z,6.33
2023-01-29T12:47:42.712Z,5.25
2023-01-29T12:50:15.803Z,5.72
2023-01-29T12:52:45.082Z,6.00
2023-01-29T12:55:14.014Z,4.20
2023-01-29T12:57:43.648Z,6.50
2023-01-29T13:00:12.643Z,5.68
2023-01-29T13:02:40.993Z,6.03
2023-01-29T13:05:16.367Z,6.45
2023-01-29T13:07:46.041Z,5.70
2023-01-29T13:10:15.103Z,5.40
2023-01-29T13:12:49.879Z,4.95
2023-01-29T13:15:22.855Z,5.75
2023-01-29T13:17:51.878Z,5.43
2023-01-29T13:20:21.954Z,5.53
2023-01-29T13:22:49.335Z,5.43
2023-01-29T13:25:17.506Z,5.82
2023-01-29T13:27:47.646Z,5.82
2023-01-29T13:33:08.770Z,4.57
2023-01-29T13:35:37.956Z,5.57
2023-01-29T13:38:05.342Z,5.15
2023-01-29T13:40:34.356Z,5.70
2023-01-29T13:43:03.033Z,5.88
2023-01-29T13:45:34.851Z,6.95
2023-01-29T13:48:10.123Z,7.10
2023-01-29T13:50:39.185Z,5.80
2023-01-29T13:53:08.149Z,6.47
2023-01-29T13:55:36.404Z,6.22
2023-01-29T13:58:05.275Z,6.13
2023-01-29T14:01:01.133Z,6.47
2023-01-29T14:04:04.501Z,6.70
2023-01-29T14:06:40.455Z,6.03
2023-01-29T14:09:35.373Z,6.43
2023-01-29T14:12:02.786Z,6.25
2023-01-29T14:15:05.627Z,5.93
2023-01-29T14:17:32.993Z,6.20
2023-01-29T14:20:02.687Z,6.57
2023-01-29T14:22:30.347Z,6.63
2023-01-29T14:24:58.979Z,5.82
2023-01-29T14:27:26.381Z,6.55
2023-01-29T14:29:59.331Z,6.70
2023-01-29T14:32:26.703Z,6.28
2023-01-29T14:34:56.488Z,7.25
2023-01-29T14:37:28.274Z,7.15
2023-01-29T14:39:57.446Z,6.63
2023-01-29T14:42:26.792Z,6.68
2023-01-29T14:45:00.436Z,7.05
2023-01-29T14:47:55.263Z,7.05
2023-01-29T14:50:54.976Z,7.35
2023-01-29T14:53:40.173Z,7.28
2023-01-29T14:56:12.410Z,7.65
2023-01-29T14:58:42.975Z,7.55
2023-01-29T15:01:18.104Z,7.15
2023-01-29T15:03:48.897Z,7.55
2023-01-29T15:06:18.724Z,7.20
2023-01-29T15:08:48.297Z,7.32
2023-01-29T15:11:37.145Z,7.07
2023-01-29T15:14:27.298Z,7.28
2023-01-29T15:17:03.045Z,6.93
2023-01-29T15:19:32.685Z,7.60
2023-01-29T15:22:04.165Z,7.55
2023-01-29T15:24:31.534Z,7.68
2023-01-29T15:26:58.930Z,7.85
2023-01-29T15:29:27.105Z,8.10
2023-01-29T15:31:54.629Z,7.28
2023-01-29T15:34:23.393Z,7.43
2023-01-29T15:36:51.088Z,7.88
2023-01-29T15:39:18.809Z,7.45
2023-01-29T15:41:46.460Z,7.72
2023-01-29T15:44:16.176Z,6.95
2023-01-29T15:46:44.059Z,8.13
2023-01-29T15:49:16.100Z,6.68
2023-01-29T15:51:44.804Z,6.72
2023-01-29T15:54:15.708Z,6.78
2023-01-29T15:56:45.319Z,7.32
2023-01-29T15:59:16.202Z,5.43
2023-01-29T16:01:43.744Z,6.70
2023-01-29T16:04:12.750Z,6.70
2023-01-29T16:06:41.458Z,6.63
2023-01-29T16:09:11.600Z,6.57
2023-01-29T16:14:07.778Z,6.32
2023-01-29T16:16:35.575Z,7.00
2023-01-29T16:19:02.996Z,7.70
2023-01-29T16:21:31.410Z,7.20
2023-01-29T16:23:59.779Z,6.88
2023-01-29T16:26:29.416Z,7.57
2023-01-29T16:28:57.153Z,7.38
2023-01-29T16:31:26.534Z,8.10
2023-01-29T16:33:54.156Z,7.78
2023-01-29T16:36:22.326Z,7.55
2023-01-29T16:38:51.175Z,6.40
2023-01-29T16:41:31.087Z,7.63
2023-01-29T16:44:01.566Z,7.50
2023-01-29T16:46:36.056Z,6.25
2023-01-29T16:49:03.614Z,7.72
2023-01-29T16:51:31.498Z,6.43
2023-01-29T16:54:00.263Z,7.25
2023-01-29T16:56:30.690Z,7.38
2023-01-29T16:58:58.124Z,7.40
2023-01-29T17:01:25.876Z,6.53
2023-01-29T17:04:05.642Z,6.72
2023-01-29T17:06:33.072Z,6.82
2023-01-29T17:09:00.607Z,6.60
2023-01-29T17:11:32.901Z,6.60
2023-01-29T17:14:00.297Z,6.70
2023-01-29T17:16:29.302Z,6.70
2023-01-29T17:18:56.779Z,6.22
2023-01-29T17:21:24.427Z,6.13
2023-01-29T17:23:51.951Z,6.30
2023-01-29T17:26:19.438Z,6.72
2023-01-29T17:28:49.192Z,6.55
2023-01-29T17:31:16.668Z,5.93
2023-01-29T17:33:44.175Z,6.22
2023-01-29T17:36:13.212Z,6.40
2023-01-29T17:38:40.646Z,6.07
2023-01-29T17:41:09.116Z,5.95
2023-01-29T17:43:36.513Z,6.57
2023-01-29T17:46:05.537Z,5.85
2023-01-29T17:48:33.004Z,5.88
2023-01-29T17:51:01.909Z,5.93
2023-01-29T17:53:44.236Z,5.93
2023-01-29T17:56:19.560Z,5.68
2023-01-29T17:58:46.972Z,5.75
2023-01-29T18:01:15.714Z,4.93
2023-01-29T18:03:43.150Z,5.68
2023-01-29T18:06:10.732Z,5.72
2023-01-29T18:08:38.489Z,5.50
2023-01-29T18:11:06.090Z,5.60
2023-01-29T18:13:35.286Z,5.30
2023-01-29T18:16:02.699Z,5.00
2023-01-29T18:18:31.480Z,5.90
2023-01-29T18:20:58.859Z,5.57
2023-01-29T18:23:26.283Z,5.20
2023-01-29T18:25:57.422Z,5.10
2023-01-29T18:28:24.948Z,5.22
2023-01-29T18:30:52.548Z,5.30
2023-01-29T18:33:19.929Z,5.97
2023-01-29T18:35:48.927Z,5.50
2023-01-29T18:38:16.486Z,5.88
2023-01-29T18:40:43.946Z,5.30
2023-01-29T18:43:11.349Z,5.82
2023-01-29T18:45:38.763Z,5.32
2023-01-29T18:48:06.598Z,5.10
2023-01-29T18:50:34.023Z,5.45
2023-01-29T18:53:04.145Z,5.25
2023-01-29T18:58:27.426Z,5.65
2023-01-29T19:00:48.740Z,5.22
2023-01-29T19:03:16.147Z,5.20
2023-01-29T19:05:43.593Z,5.10
2023-01-29T19:08:12.285Z,5.07
2023-01-29T19:10:40.442Z,5.45
2023-01-29T19:13:07.879Z,5.43
2023-01-29T19:15:35.333Z,5.38
2023-01-29T19:18:04.062Z,5.03
2023-01-29T19:20:31.609Z,5.72
2023-01-29T19:22:59.438Z,5.35
2023-01-29T19:25:28.227Z,5.63
2023-01-29T19:27:55.594Z,5.20
2023-01-29T19:30:22.992Z,5.80
2023-01-29T19:32:50.590Z,5.50
2023-01-29T19:35:18.295Z,5.60
2023-01-29T19:37:46.197Z,5.60
2023-01-29T19:40:14.715Z,5.95
2023-01-29T19:42:43.407Z,5.88
2023-01-29T19:45:11.104Z,5.45
2023-01-29T19:47:41.666Z,5.38
2023-01-29T19:50:10.471Z,5.72
2023-01-29T19:52:50.866Z,5.47
2023-01-29T19:55:19.673Z,5.15
2023-01-29T19:57:48.529Z,5.28
2023-01-29T20:00:17.999Z,5.95
2023-01-29T20:02:45.374Z,5.57
2023-01-29T20:05:12.993Z,6.82
2023-01-29T20:07:42.166Z,4.95
2023-01-29T20:10:11.390Z,5.82
2023-01-29T20:12:38.852Z,6.37
2023-01-29T20:15:08.531Z,5.53
2023-01-29T20:17:35.909Z,5.75
2023-01-29T20:20:03.754Z,5.75
2023-01-29T20:22:31.239Z,5.50
2023-01-29T20:24:58.623Z,5.18
2023-01-29T20:27:26.004Z,5.20
2023-01-29T20:29:53.462Z,5.28
2023-01-29T20:32:22.190Z,5.45
2023-01-29T20:34:51.958Z,5.30
2023-01-29T20:37:19.662Z,5.47
2023-01-29T20:39:47.122Z,5.15
2023-01-29T20:42:14.537Z,4.80
2023-01-29T20:44:41.918Z,4.70
2023-01-29T20:47:09.391Z,4.80
2023-01-29T20:49:38.098Z,4.88
2023-01-29T20:52:06.597Z,5.10
2023-01-29T20:54:34.399Z,5.28
2023-01-29T20:57:01.993Z,5.05
2023-01-29T20:59:29.825Z,4.53
2023-01-29T21:01:57.356Z,5.05
2023-01-29T21:04:24.823Z,4.15
2023-01-29T21:06:53.549Z,4.78
2023-01-29T21:09:21.019Z,5.30
2023-01-29T21:11:48.436Z,4.90
2023-01-29T21:14:15.817Z,4.35
2023-01-29T21:16:43.326Z,4.63
2023-01-29T21:19:10.857Z,4.57
2023-01-29T21:21:38.238Z,4.40
2023-01-29T21:24:08.744Z,4.53
2023-01-29T21:26:38.111Z,4.32
2023-01-29T21:29:05.586Z,4.32
2023-01-29T21:31:33.391Z,3.97
2023-01-29T21:34:01.487Z,3.97
2023-01-29T21:36:28.917Z,4.88
2023-01-29T21:38:56.781Z,4.63
2023-01-29T21:41:45.576Z,4.32
2023-01-29T21:44:12.078Z,4.53
2023-01-29T21:46:39.467Z,4.13
2023-01-29T21:49:06.958Z,4.32
2023-01-29T21:51:34.611Z,4.15
2023-01-29T21:54:03.482Z,4.18
2023-01-29T21:56:32.258Z,4.40
2023-01-29T21:59:00.658Z,4.60
2023-01-29T22:01:37.831Z,4.13
2023-01-29T22:04:07.539Z,4.10
2023-01-29T22:06:34.959Z,4.57
2023-01-29T22:09:02.344Z,3.88
2023-01-29T22:11:29.824Z,4.43
2023-01-29T22:13:58.527Z,4.50
2023-01-29T22:16:25.988Z,4.40
2023-01-29T22:18:53.357Z,4.45
2023-01-29T22:21:20.782Z,4.22
2023-01-29T22:23:48.978Z,4.68
2023-01-29T22:26:16.482Z,4.75
2023-01-29T22:28:43.876Z,4.53
2023-01-29T22:31:12.712Z,4.60
2023-01-29T22:33:40.226Z,4.65
2023-01-29T22:36:08.525Z,4.40
2023-01-29T22:38:36.012Z,4.55
2023-01-29T22:41:04.542Z,4.75
2023-01-29T22:43:31.943Z,4.78
2023-01-29T22:45:59.387Z,4.55
2023-01-29T22:48:28.502Z,4.70
2023-01-29T22:51:09.787Z,5.13
2023-01-29T22:53:37.801Z,5.25
2023-01-29T22:56:05.809Z,4.85
2023-01-29T22:58:33.228Z,5.25
2023-01-29T23:01:00.609Z,5.00
2023-01-29T23:03:29.365Z,5.10
2023-01-29T23:05:56.768Z,5.40
2023-01-29T23:08:24.295Z,5.63
2023-01-29T23:10:51.690Z,4.90
2023-01-29T23:13:19.357Z,5.57
2023-01-29T23:15:46.769Z,5.80
2023-01-29T23:18:14.157Z,5.10
2023-01-29T23:20:44.078Z,5.55
2023-01-29T23:23:11.456Z,5.63
2023-01-29T23:26:07.938Z,4.95
2023-01-29T23:28:35.323Z,5.93
2023-01-29T23:31:02.995Z,5.63
2023-01-29T23:33:30.447Z,6.05
2023-01-29T23:35:59.182Z,5.88
2023-01-29T23:38:26.559Z,5.85
2023-01-29T23:40:57.760Z,6.53
2023-01-29T23:43:25.155Z,5.88
2023-01-29T23:45:52.639Z,5.88
2023-01-29T23:48:20.295Z,5.93
2023-01-29T23:50:47.662Z,6.45
2023-01-29T23:53:16.358Z,6.00
2023-01-29T23:55:44.487Z,6.10
2023-01-29T23:58:11.885Z,6.32
